createdAt,value
2024-01-11T00:00:49.051Z,18.90
2024-01-11T00:03:16.567Z,17.10
2024-01-11T00:05:44.576Z,16.33
2024-01-11T00:08:12.705Z,16.63
2024-01-11T00:10:39.827Z,14.23
2024-01-11T00:13:09.797Z,19.50
2024-01-11T00:15:37.086Z,14.07
2024-01-11T00:18:04.832Z,15.50
2024-01-11T00:20:32.040Z,13.47
2024-01-11T00:22:59.506Z,14.97
2024-01-11T00:25:26.923Z,14.33
2024-01-11T00:27:54.137Z,16.73
2024-01-11T00:30:21.395Z,18.23
2024-01-11T00:32:48.790Z,15.67
2024-01-11T00:35:16.166Z,17.97
2024-01-11T00:37:43.415Z,16.17
2024-01-11T00:40:11.096Z,20.13
2024-01-11T00:42:38.523Z,18.80
2024-01-11T00:45:06.336Z,22.90
2024-01-11T00:47:33.582Z,18.50
2024-01-11T00:50:01.059Z,23.23
2024-01-11T00:52:28.287Z,19.47
2024-01-11T00:54:55.564Z,19.73
2024-01-11T00:57:23.049Z,18.93
2024-01-11T00:59:50.309Z,25.00
2024-01-11T01:02:17.587Z,17.80
2024-01-11T01:04:44.872Z,18.67
2024-01-11T01:07:12.153Z,16.30
2024-01-11T01:09:39.704Z,17.80
2024-01-11T01:12:07.141Z,16.93
2024-01-11T01:14:34.883Z,19.23
2024-01-11T01:17:03.432Z,24.10
2024-01-11T01:19:30.738Z,21.83
2024-01-11T01:21:58.154Z,21.67
2024-01-11T01:24:25.297Z,16.07
2024-01-11T01:26:52.596Z,17.10
2024-01-11T01:29:19.846Z,23.37
2024-01-11T01:31:47.170Z,17.23
2024-01-11T01:34:16.089Z,23.07
2024-01-11T01:36:43.497Z,18.03
2024-01-11T01:39:10.766Z,21.70
2024-01-11T01:41:38.285Z,21.23
2024-01-11T01:44:05.745Z,18.27
2024-01-11T01:46:33.233Z,20.47
2024-01-11T01:49:00.779Z,22.17
2024-01-11T01:51:30.443Z,23.63
2024-01-11T01:53:58.824Z,14.00
2024-01-11T01:56:26.384Z,20.30
2024-01-11T01:58:55.064Z,21.47
2024-01-11T02:01:24.681Z,18.60
2024-01-11T02:03:53.684Z,20.20
2024-01-11T02:06:24.709Z,25.47
2024-01-11T02:08:54.709Z,28.03
2024-01-11T02:11:24.462Z,27.47
2024-01-11T02:13:52.285Z,26.73
2024-01-11T02:16:19.587Z,25.53
2024-01-11T02:18:47.105Z,27.30
2024-01-11T02:21:16.820Z,24.00
2024-01-11T02:24:07.972Z,24.90
2024-01-11T02:26:35.578Z,25.83
2024-01-11T02:29:03.206Z,26.60
2024-01-11T02:31:30.536Z,18.73
2024-01-11T02:33:58.003Z,27.63
2024-01-11T02:36:27.040Z,23.73
2024-01-11T02:38:55.122Z,22.50
2024-01-11T02:41:24.070Z,29.67
2024-01-11T02:43:51.313Z,22.27
2024-01-11T02:46:18.811Z,30.13
2024-01-11T02:48:46.333Z,19.67
2024-01-11T02:51:13.688Z,24.80
2024-01-11T02:53:41.046Z,47.53
2024-01-11T02:56:08.412Z,35.07
2024-01-11T02:58:35.698Z,34.00
2024-01-11T03:01:03.114Z,23.37
2024-01-11T03:03:31.294Z,23.07
2024-01-11T03:05:58.813Z,23.07
2024-01-11T03:08:27.517Z,21.10
2024-01-11T03:10:54.814Z,22.27
2024-01-11T03:13:22.305Z,23.73
2024-01-11T03:15:49.642Z,18.93
2024-01-11T03:18:17.243Z,17.07
2024-01-11T03:20:44.625Z,22.27
2024-01-11T03:23:11.952Z,51.53
2024-01-11T03:25:39.230Z,28.97
2024-01-11T03:28:06.535Z,26.17
2024-01-11T03:30:33.884Z,26.97
2024-01-11T03:33:01.241Z,28.10
2024-01-11T03:35:28.721Z,33.60
2024-01-11T03:37:56.184Z,21.30
2024-01-11T03:40:23.469Z,21.73
2024-01-11T03:42:50.807Z,22.57
2024-01-11T03:45:21.216Z,28.27
2024-01-11T03:47:48.517Z,20.17
2024-01-11T03:50:15.820Z,26.47
2024-01-11T03:52:43.861Z,21.03
2024-01-11T03:55:11.154Z,26.03
2024-01-11T03:57:38.388Z,27.00
2024-01-11T04:00:10.798Z,33.23
2024-01-11T04:02:39.066Z,33.63
2024-01-11T04:05:06.931Z,38.97
2024-01-11T04:07:34.341Z,36.63
2024-01-11T04:10:01.660Z,24.97
2024-01-11T04:12:28.884Z,25.47
2024-01-11T04:14:56.274Z,23.73
2024-01-11T04:17:23.608Z,25.10
2024-01-11T04:19:51.060Z,24.57
2024-01-11T04:22:18.470Z,23.90
2024-01-11T04:24:45.895Z,23.63
2024-01-11T04:27:13.321Z,20.87
2024-01-11T04:29:40.539Z,24.80
2024-01-11T04:32:07.790Z,25.30
2024-01-11T04:34:35.123Z,22.33
2024-01-11T04:37:02.511Z,24.93
2024-01-11T04:39:29.689Z,22.23
2024-01-11T04:41:56.902Z,27.97
2024-01-11T04:44:25.456Z,19.47
2024-01-11T04:46:53.883Z,21.27
2024-01-11T04:49:21.228Z,21.47
2024-01-11T04:51:48.528Z,23.73
2024-01-11T04:54:15.778Z,22.70
2024-01-11T04:56:43.292Z,23.77
2024-01-11T04:59:10.649Z,19.80
2024-01-11T05:01:37.881Z,20.33
2024-01-11T05:04:05.270Z,23.13
2024-01-11T05:06:35.412Z,25.10
2024-01-11T05:09:03.155Z,22.73
2024-01-11T05:11:30.498Z,21.60
2024-01-11T05:13:57.818Z,26.17
2024-01-11T05:16:27.372Z,23.17
2024-01-11T05:18:56.448Z,22.27
2024-01-11T05:21:24.453Z,26.07
2024-01-11T05:23:52.391Z,22.27
2024-01-11T05:26:20.688Z,20.97
2024-01-11T05:28:48.252Z,18.83
2024-01-11T05:31:17.705Z,26.07
2024-01-11T05:33:46.107Z,26.67
2024-01-11T05:36:13.688Z,24.33
2024-01-11T05:38:41.884Z,25.57
2024-01-11T05:41:10.092Z,22.00
2024-01-11T05:43:40.393Z,23.27
2024-01-11T05:46:08.665Z,24.10
2024-01-11T05:48:36.108Z,22.00
2024-01-11T05:51:03.462Z,21.47
2024-01-11T05:53:30.886Z,20.50
2024-01-11T05:55:58.301Z,21.33
2024-01-11T05:58:25.707Z,23.70
2024-01-11T06:00:52.988Z,20.23
2024-01-11T06:03:20.406Z,22.33
2024-01-11T06:05:47.843Z,19.00
2024-01-11T06:08:15.282Z,21.60
2024-01-11T06:10:42.835Z,20.20
2024-01-11T06:13:10.902Z,23.83
2024-01-11T06:15:38.206Z,17.97
2024-01-11T06:18:06.440Z,16.07
2024-01-11T06:20:33.971Z,21.77
2024-01-11T06:23:01.295Z,20.83
2024-01-11T06:25:29.013Z,17.87
2024-01-11T06:27:56.748Z,17.10
2024-01-11T06:30:24.036Z,22.57
2024-01-11T06:32:51.320Z,20.97
2024-01-11T06:35:18.753Z,20.10
2024-01-11T06:37:46.001Z,21.20
2024-01-11T06:40:13.179Z,18.50
2024-01-11T06:42:40.384Z,17.37
2024-01-11T06:45:08.188Z,17.60
2024-01-11T06:47:35.571Z,16.83
2024-01-11T06:50:04.117Z,20.27
2024-01-11T06:52:31.381Z,19.87
2024-01-11T06:54:58.509Z,16.93
2024-01-11T06:57:26.063Z,19.50
2024-01-11T06:59:53.348Z,19.50
2024-01-11T07:02:20.625Z,20.00
2024-01-11T07:04:47.765Z,16.80
2024-01-11T07:07:15.002Z,18.73
2024-01-11T07:09:42.244Z,15.70
2024-01-11T07:12:10.171Z,17.90
2024-01-11T07:14:37.804Z,17.07
2024-01-11T07:17:05.458Z,17.37
2024-01-11T07:19:33.392Z,19.73
2024-01-11T07:22:00.721Z,18.03
2024-01-11T07:24:28.013Z,21.70
2024-01-11T07:26:55.572Z,17.50
2024-01-11T07:29:22.972Z,18.57
2024-01-11T07:31:50.222Z,14.80
2024-01-11T07:34:19.082Z,18.20
2024-01-11T07:36:46.452Z,15.93
2024-01-11T07:39:13.709Z,18.43
2024-01-11T07:41:41.064Z,14.10
2024-01-11T07:44:09.087Z,20.20
2024-01-11T07:46:42.542Z,19.70
2024-01-11T07:49:17.226Z,14.67
2024-01-11T07:51:44.769Z,16.83
2024-01-11T07:54:12.040Z,15.77
2024-01-11T07:56:39.779Z,15.50
2024-01-11T07:59:07.163Z,17.93
2024-01-11T08:01:36.715Z,17.70
2024-01-11T08:04:04.530Z,17.90
2024-01-11T08:06:31.991Z,15.27
2024-01-11T08:08:59.312Z,18.77
2024-01-11T08:11:27.901Z,15.27
2024-01-11T08:13:56.421Z,16.30
2024-01-11T08:16:23.695Z,16.07
2024-01-11T08:18:51.829Z,18.80
2024-01-11T08:21:19.021Z,16.13
2024-01-11T08:23:48.987Z,16.83
2024-01-11T08:26:17.119Z,16.73
2024-01-11T08:28:44.747Z,16.27
2024-01-11T08:31:12.144Z,16.07
2024-01-11T08:33:39.601Z,18.17
2024-01-11T08:36:08.370Z,16.53
2024-01-11T08:38:36.995Z,15.97
2024-01-11T08:41:05.068Z,14.13
2024-01-11T08:43:32.530Z,14.87
2024-01-11T08:46:00.284Z,15.43
2024-01-11T08:48:28.351Z,17.37
2024-01-11T08:50:55.826Z,17.27
2024-01-11T08:53:23.190Z,17.17
2024-01-11T08:55:50.504Z,17.17
2024-01-11T08:58:17.708Z,18.40
2024-01-11T09:00:45.599Z,17.10
2024-01-11T09:03:15.215Z,15.63
2024-01-11T09:05:42.737Z,16.60
2024-01-11T09:08:10.239Z,18.10
2024-01-11T09:10:37.622Z,16.57
2024-01-11T09:13:05.016Z,18.30
2024-01-11T09:15:34.116Z,17.80
2024-01-11T09:18:04.372Z,16.73
2024-01-11T09:20:31.833Z,13.87
2024-01-11T09:22:59.046Z,16.10
2024-01-11T09:25:26.495Z,13.20
2024-01-11T09:27:53.815Z,18.23
2024-01-11T09:30:21.093Z,16.17
2024-01-11T09:32:49.116Z,17.97
2024-01-11T09:35:17.022Z,15.53
2024-01-11T09:37:47.265Z,15.83
2024-01-11T09:40:14.742Z,15.10
2024-01-11T09:42:42.141Z,14.40
2024-01-11T09:45:13.863Z,13.93
2024-01-11T09:47:42.179Z,15.50
2024-01-11T09:50:09.914Z,16.27
2024-01-11T09:52:39.442Z,14.80
2024-01-11T09:55:07.372Z,13.57
2024-01-11T09:57:40.218Z,13.87
2024-01-11T10:00:08.998Z,15.33
2024-01-11T10:02:36.533Z,14.27
2024-01-11T10:05:04.765Z,12.80
2024-01-11T10:07:34.205Z,13.90
2024-01-11T10:10:04.578Z,13.00
2024-01-11T10:12:32.014Z,13.47
2024-01-11T10:15:08.533Z,13.93
2024-01-11T10:17:35.889Z,14.83
2024-01-11T10:20:04.813Z,16.90
2024-01-11T10:22:32.154Z,15.37
2024-01-11T10:25:16.988Z,14.27
2024-01-11T10:27:45.834Z,12.70
2024-01-11T10:30:17.849Z,13.83
2024-01-11T10:32:46.235Z,13.88
2024-01-11T10:35:14.043Z,12.50
2024-01-11T10:37:43.016Z,13.37
2024-01-11T10:40:14.418Z,12.20
2024-01-11T10:42:45.058Z,13.13
2024-01-11T10:45:20.685Z,13.43
2024-01-11T10:48:06.149Z,11.77
2024-01-11T10:50:41.465Z,14.97
2024-01-11T10:53:33.660Z,13.63
2024-01-11T10:56:02.350Z,13.07
2024-01-11T10:58:30.531Z,13.40
2024-01-11T11:01:00.549Z,15.47
2024-01-11T11:03:29.812Z,13.20
2024-01-11T11:05:59.402Z,17.10
2024-01-11T11:08:28.243Z,16.30
2024-01-11T11:11:00.159Z,15.57
2024-01-11T11:13:28.461Z,14.23
2024-01-11T11:16:01.575Z,13.50
2024-01-11T11:18:29.567Z,12.97
2024-01-11T11:20:56.876Z,13.60
2024-01-11T11:23:24.627Z,15.00
2024-01-11T11:25:56.644Z,15.23
2024-01-11T11:28:23.901Z,12.80
2024-01-11T11:30:53.898Z,18.80
2024-01-11T11:33:24.508Z,12.90
2024-01-11T11:35:59.508Z,13.23
2024-01-11T11:38:31.315Z,17.57
2024-01-11T11:41:00.107Z,14.43
2024-01-11T11:43:32.740Z,14.33
2024-01-11T11:46:08.722Z,13.50
2024-01-11T11:48:36.793Z,12.57
2024-01-11T11:51:07.142Z,14.17
2024-01-11T11:53:39.473Z,12.60
2024-01-11T11:56:08.164Z,12.57
2024-01-11T11:58:36.118Z,13.10
2024-01-11T12:01:05.448Z,13.53
2024-01-11T12:03:38.484Z,12.60
2024-01-11T12:06:08.378Z,15.00
2024-01-11T12:08:36.954Z,13.40
2024-01-11T12:11:05.322Z,12.97
2024-01-11T12:13:33.780Z,16.70
2024-01-11T12:16:01.332Z,12.53
2024-01-11T12:18:29.005Z,12.70
2024-01-11T12:20:56.485Z,12.80
2024-01-11T12:23:23.959Z,12.30
2024-01-11T12:25:51.482Z,12.83
2024-01-11T12:28:18.891Z,14.27
2024-01-11T12:30:47.607Z,12.83
2024-01-11T12:33:15.318Z,13.33
2024-01-11T12:35:42.734Z,13.00
2024-01-11T12:38:12.578Z,12.13
2024-01-11T12:40:41.206Z,12.70
2024-01-11T12:43:09.246Z,13.20
2024-01-11T12:45:38.065Z,12.63
2024-01-11T12:48:10.092Z,13.07
2024-01-11T12:50:37.756Z,13.27
2024-01-11T12:53:20.524Z,12.73
2024-01-11T12:55:55.077Z,12.23
2024-01-11T12:58:27.569Z,11.53
2024-01-11T13:00:55.487Z,14.30
2024-01-11T13:03:23.203Z,13.17
2024-01-11T13:05:50.741Z,13.60
2024-01-11T13:08:21.006Z,13.60
2024-01-11T13:10:49.684Z,12.07
2024-01-11T13:13:17.726Z,15.13
2024-01-11T13:15:46.374Z,12.40
2024-01-11T13:18:13.977Z,13.07
2024-01-11T13:20:41.468Z,11.70
2024-01-11T13:23:21.725Z,11.40
2024-01-11T13:25:53.751Z,10.60
2024-01-11T13:28:23.821Z,10.70
2024-01-11T13:30:51.234Z,9.83
2024-01-11T13:33:19.334Z,9.97
2024-01-11T13:35:47.712Z,10.30
2024-01-11T13:38:15.248Z,11.17
2024-01-11T13:40:44.346Z,9.77
2024-01-11T13:43:11.942Z,9.70
2024-01-11T13:45:39.339Z,9.93
2024-01-11T13:48:07.866Z,9.90
2024-01-11T13:50:35.962Z,10.40
2024-01-11T13:53:03.785Z,10.60
2024-01-11T13:55:40.066Z,11.43
2024-01-11T13:58:08.186Z,11.03
2024-01-11T14:00:35.690Z,10.60
2024-01-11T14:03:05.033Z,11.77
2024-01-11T14:05:32.657Z,11.73
2024-01-11T14:08:00.903Z,10.67
2024-01-11T14:10:29.059Z,11.90
2024-01-11T14:12:56.546Z,12.23
2024-01-11T14:15:24.377Z,15.87
2024-01-11T14:17:52.115Z,12.30
2024-01-11T14:20:19.551Z,11.97
2024-01-11T14:22:51.010Z,11.23
2024-01-11T14:25:20.119Z,10.93
2024-01-11T14:27:50.867Z,11.73
2024-01-11T14:30:18.453Z,11.27
2024-01-11T14:32:47.132Z,11.17
2024-01-11T14:35:15.218Z,9.97
2024-01-11T14:37:43.215Z,9.70
2024-01-11T14:40:13.868Z,9.93
2024-01-11T14:42:42.546Z,10.93
2024-01-11T14:45:10.184Z,10.70
2024-01-11T14:47:37.709Z,10.20
2024-01-11T14:50:05.979Z,10.07
2024-01-11T14:52:33.518Z,11.53
2024-01-11T14:55:00.929Z,11.30
2024-01-11T14:57:28.299Z,10.97
2024-01-11T14:59:55.780Z,11.73
2024-01-11T15:02:23.232Z,11.57
2024-01-11T15:04:50.642Z,12.03
2024-01-11T15:07:18.168Z,10.80
2024-01-11T15:09:45.458Z,11.27
2024-01-11T15:12:12.725Z,11.43
2024-01-11T15:14:40.091Z,12.23
2024-01-11T15:17:07.559Z,13.07
2024-01-11T15:19:34.833Z,16.40
2024-01-11T15:22:02.125Z,13.27
2024-01-11T15:24:29.995Z,11.50
2024-01-11T15:26:57.599Z,13.17
2024-01-11T15:29:25.004Z,13.00
2024-01-11T15:31:52.735Z,12.03
2024-01-11T15:34:20.685Z,13.13
2024-01-11T15:36:48.323Z,10.73
2024-01-11T15:39:21.777Z,13.03
2024-01-11T15:41:56.953Z,11.70
2024-01-11T15:44:29.064Z,17.37
2024-01-11T15:46:58.211Z,11.35
2024-01-11T15:49:26.111Z,10.70
2024-01-11T15:51:54.988Z,15.03
2024-01-11T15:54:22.624Z,10.40
2024-01-11T15:56:50.318Z,13.10
2024-01-11T15:59:17.959Z,13.40
2024-01-11T16:01:55.449Z,15.50
2024-01-11T16:04:28.228Z,9.30
2024-01-11T16:06:56.330Z,12.93
2024-01-11T16:09:24.757Z,10.63
2024-01-11T16:11:52.524Z,10.20
2024-01-11T16:14:20.195Z,10.33
2024-01-11T16:16:47.701Z,12.50
2024-01-11T16:19:15.160Z,10.23
2024-01-11T16:21:44.211Z,10.63
2024-01-11T16:24:11.581Z,10.37
2024-01-11T16:26:38.924Z,12.30
2024-01-11T16:29:06.966Z,12.50
2024-01-11T16:31:34.273Z,11.97
2024-01-11T16:34:01.567Z,14.47
2024-01-11T16:36:29.218Z,13.03
2024-01-11T16:38:56.818Z,10.23
2024-01-11T16:41:25.938Z,10.53
2024-01-11T16:43:53.307Z,11.57
2024-01-11T16:46:24.220Z,13.90
2024-01-11T16:48:52.457Z,14.43
2024-01-11T16:51:20.391Z,10.47
2024-01-11T16:53:47.901Z,13.30
2024-01-11T16:56:15.485Z,12.10
2024-01-11T16:58:43.266Z,12.97
2024-01-11T17:01:11.449Z,10.47
2024-01-11T17:03:38.893Z,10.40
2024-01-11T17:06:06.989Z,11.30
2024-01-11T17:08:34.343Z,10.40
2024-01-11T17:11:01.651Z,10.63
2024-01-11T17:13:28.875Z,10.83
2024-01-11T17:15:56.292Z,10.77
2024-01-11T17:18:24.105Z,10.60
2024-01-11T17:20:51.900Z,10.10
2024-01-11T17:23:19.679Z,14.20
2024-01-11T17:25:47.394Z,13.77
2024-01-11T17:28:14.630Z,11.47
2024-01-11T17:30:41.950Z,11.07
2024-01-11T17:33:10.178Z,13.73
2024-01-11T17:35:37.909Z,10.57
2024-01-11T17:38:05.465Z,10.90
2024-01-11T17:40:34.769Z,10.33
2024-01-11T17:43:03.516Z,10.37
2024-01-11T17:45:30.923Z,10.60
2024-01-11T17:47:58.511Z,11.60
2024-01-11T17:50:25.961Z,10.63
2024-01-11T17:52:53.280Z,14.63
2024-01-11T17:55:22.044Z,11.93
2024-01-11T17:57:49.334Z,10.93
2024-01-11T18:00:17.049Z,11.03
2024-01-11T18:02:44.273Z,10.80
2024-01-11T18:05:11.746Z,11.27
2024-01-11T18:07:39.214Z,10.93
2024-01-11T18:10:06.994Z,11.23
2024-01-11T18:12:34.255Z,10.50
2024-01-11T18:15:01.637Z,10.60
2024-01-11T18:17:29.105Z,11.37
2024-01-11T18:19:56.523Z,10.77
2024-01-11T18:22:25.343Z,9.67
2024-01-11T18:24:52.701Z,11.30
2024-01-11T18:27:21.166Z,11.03
2024-01-11T18:29:48.620Z,10.77
2024-01-11T18:32:16.129Z,15.17
2024-01-11T18:34:43.457Z,10.30
2024-01-11T18:37:10.658Z,10.43
2024-01-11T18:39:38.546Z,10.43
2024-01-11T18:42:07.870Z,10.37
2024-01-11T18:44:35.300Z,10.53
2024-01-11T18:47:02.770Z,10.87
2024-01-11T18:49:29.995Z,11.87
2024-01-11T18:51:57.295Z,10.57
2024-01-11T18:54:24.629Z,10.23
2024-01-11T18:56:51.914Z,10.13
2024-01-11T18:59:19.601Z,10.67
2024-01-11T19:01:48.948Z,9.93
2024-01-11T19:04:16.459Z,10.70
2024-01-11T19:06:46.468Z,11.20
2024-01-11T19:09:13.853Z,10.87
2024-01-11T19:11:41.445Z,11.03
2024-01-11T19:14:11.202Z,11.60
2024-01-11T19:16:39.056Z,10.53
2024-01-11T19:19:06.361Z,10.80
2024-01-11T19:21:33.917Z,10.93
2024-01-11T19:24:02.796Z,10.53
2024-01-11T19:26:30.584Z,10.87
2024-01-11T19:28:57.796Z,10.07
2024-01-11T19:31:25.507Z,10.17
2024-01-11T19:33:54.207Z,10.43
2024-01-11T19:36:22.059Z,10.00
2024-01-11T19:38:49.321Z,10.30
2024-01-11T19:41:22.833Z,9.97
2024-01-11T19:43:50.340Z,10.57
2024-01-11T19:46:19.077Z,10.30
2024-01-11T19:48:46.940Z,9.90
2024-01-11T19:51:17.452Z,10.27
2024-01-11T19:53:45.688Z,11.07
2024-01-11T19:56:18.068Z,9.90
2024-01-11T19:58:49.444Z,9.90
2024-01-11T20:01:16.938Z,10.67
2024-01-11T20:03:44.612Z,10.00
2024-01-11T20:06:17.505Z,10.37
2024-01-11T20:08:45.110Z,10.47
2024-01-11T20:11:13.459Z,10.33
2024-01-11T20:13:40.919Z,9.97
2024-01-11T20:16:09.559Z,9.40
2024-01-11T20:18:37.529Z,10.27
2024-01-11T20:21:05.478Z,10.17
2024-01-11T20:23:33.326Z,9.90
2024-01-11T20:26:03.726Z,9.53
2024-01-11T20:28:31.326Z,9.80
2024-01-11T20:30:58.626Z,9.53
2024-01-11T20:33:25.934Z,10.00
2024-01-11T20:35:53.350Z,10.20
2024-01-11T20:38:20.746Z,9.83
2024-01-11T20:40:47.980Z,9.83
2024-01-11T20:43:15.178Z,9.67
2024-01-11T20:45:42.476Z,10.33
2024-01-11T20:48:09.734Z,10.27
2024-01-11T20:50:36.956Z,12.37
2024-01-11T20:53:06.330Z,11.90
2024-01-11T20:55:33.636Z,10.53
2024-01-11T20:58:00.864Z,9.90
2024-01-11T21:00:28.312Z,9.13
2024-01-11T21:02:57.083Z,9.10
2024-01-11T21:05:27.196Z,9.67
2024-01-11T21:07:54.379Z,9.37
2024-01-11T21:10:21.559Z,9.37
2024-01-11T21:12:50.289Z,10.70
2024-01-11T21:15:17.647Z,10.17
2024-01-11T21:17:45.003Z,9.27
2024-01-11T21:20:12.635Z,9.70
2024-01-11T21:22:39.844Z,9.67
2024-01-11T21:25:07.464Z,9.80
2024-01-11T21:27:34.739Z,10.13
2024-01-11T21:30:02.099Z,10.07
2024-01-11T21:32:29.470Z,9.77
2024-01-11T21:34:56.955Z,9.70
2024-01-11T21:37:24.212Z,10.20
2024-01-11T21:39:51.414Z,9.30
2024-01-11T21:42:18.587Z,9.37
2024-01-11T21:44:45.785Z,9.37
2024-01-11T21:47:13.978Z,9.63
2024-01-11T21:49:41.179Z,9.97
2024-01-11T21:52:08.725Z,9.70
2024-01-11T21:54:36.782Z,9.73
2024-01-11T21:57:04.496Z,9.60
2024-01-11T21:59:32.702Z,9.27
2024-01-11T22:01:59.912Z,9.60
2024-01-11T22:04:27.117Z,10.13
2024-01-11T22:06:56.472Z,9.53
2024-01-11T22:09:23.787Z,9.80
2024-01-11T22:11:51.170Z,9.73
2024-01-11T22:14:18.524Z,10.00
2024-01-11T22:16:47.016Z,10.20
2024-01-11T22:19:14.506Z,10.80
2024-01-11T22:21:41.841Z,10.03
2024-01-11T22:24:09.572Z,10.40
2024-01-11T22:26:37.007Z,10.27
2024-01-11T22:29:04.246Z,10.13
2024-01-11T22:31:37.413Z,10.10
2024-01-11T22:34:04.953Z,10.30
2024-01-11T22:36:32.849Z,10.57
2024-01-11T22:39:00.250Z,10.60
2024-01-11T22:41:27.591Z,10.90
2024-01-11T22:43:54.802Z,10.57
2024-01-11T22:46:22.208Z,10.17
2024-01-11T22:48:49.657Z,10.10
2024-01-11T22:51:18.165Z,10.73
2024-01-11T22:53:46.135Z,10.37
2024-01-11T22:56:13.531Z,10.77
2024-01-11T22:58:40.693Z,10.27
2024-01-11T23:01:08.083Z,10.23
2024-01-11T23:03:35.363Z,10.43
2024-01-11T23:06:02.882Z,10.47
2024-01-11T23:08:30.222Z,10.27
2024-01-11T23:10:57.460Z,10.23
2024-01-11T23:13:24.975Z,10.53
2024-01-11T23:15:52.245Z,10.47
2024-01-11T23:18:19.556Z,10.23
2024-01-11T23:20:47.062Z,10.10
2024-01-11T23:23:14.317Z,11.03
2024-01-11T23:25:41.580Z,10.00
2024-01-11T23:28:09.215Z,10.03
2024-01-11T23:30:36.498Z,10.10
2024-01-11T23:33:04.117Z,10.77
2024-01-11T23:35:31.491Z,10.37
2024-01-11T23:37:58.777Z,11.00
2024-01-11T23:40:25.921Z,10.73
2024-01-11T23:42:53.949Z,10.83
2024-01-11T23:45:21.289Z,11.07
2024-01-11T23:47:48.694Z,10.63
2024-01-11T23:50:16.286Z,10.83
2024-01-11T23:52:43.762Z,11.43
2024-01-11T23:55:11.139Z,10.57
2024-01-11T23:57:45.023Z,10.17
